Terminal Aerodrome Forecast
Issued by NWS Sterling, VA

Home | Current Version | Previous Version | Text Only | Print | Product List | Glossary On
Versions: 1 2 3 4 5 6 7 8 9 10 11 12 13 14 15 16 17 18 19 20 21 22 23
000
FTUS41 KLWX 221800 AAA
TAFIAD
TAF AMD
KIAD 221854Z 2219/2324 01004KT 5SM -RA BR SCT015 OVC025
      TEMPO 2219/2220 2SM -RA BR
     FM222300 02004KT 3SM -RA BR SCT008 OVC015
     FM230100 VRB03KT 2SM -RADZ BKN008 OVC015
     FM230900 VRB03KT 2SM -RADZ BR OVC003
     FM231500 VRB03KT 3SM -DZ BR OVC008=

USA.gov is the U.S. government's official web portal to all federal, state and local government web resources and services.